createdAt,value
2017-12-30T00:01:44.695Z,0.57
2017-12-30T00:04:13.012Z,0.62
2017-12-30T00:06:42.094Z,0.68
2017-12-30T00:09:10.438Z,0.73
2017-12-30T00:11:38.780Z,0.74
2017-12-30T00:14:07.181Z,0.78
2017-12-30T00:16:35.494Z,0.72
2017-12-30T00:19:03.824Z,0.67
2017-12-30T00:21:32.438Z,0.58
2017-12-30T00:24:00.800Z,0.55
2017-12-30T00:26:29.112Z,0.49
2017-12-30T00:28:57.502Z,0.46
2017-12-30T00:31:25.812Z,0.45
2017-12-30T00:33:54.179Z,0.45
2017-12-30T00:36:22.520Z,0.40
2017-12-30T00:38:50.855Z,0.37
2017-12-30T00:41:19.166Z,0.45
2017-12-30T00:43:47.518Z,0.58
2017-12-30T00:46:15.848Z,0.69
2017-12-30T00:48:44.963Z,0.78
2017-12-30T00:51:13.323Z,0.79
2017-12-30T00:53:42.434Z,0.88
2017-12-30T00:56:10.803Z,0.94
2017-12-30T00:58:39.151Z,1.02
2017-12-30T01:01:07.487Z,1.06
2017-12-30T01:03:35.839Z,1.15
2017-12-30T01:06:04.936Z,1.10
2017-12-30T01:08:33.294Z,1.20
2017-12-30T01:11:02.409Z,1.22
2017-12-30T01:13:30.776Z,1.27
2017-12-30T01:15:59.906Z,1.34
2017-12-30T01:18:28.260Z,1.34
2017-12-30T01:20:56.612Z,1.30
2017-12-30T01:23:24.934Z,1.33
2017-12-30T01:25:53.283Z,1.38
2017-12-30T01:28:22.426Z,1.51
2017-12-30T01:30:50.754Z,1.61
2017-12-30T01:33:19.841Z,1.52
2017-12-30T01:35:48.198Z,1.67
2017-12-30T01:38:16.815Z,1.65
2017-12-30T01:40:45.937Z,1.70
2017-12-30T01:43:14.244Z,1.75
2017-12-30T01:45:42.562Z,1.66
2017-12-30T01:48:11.689Z,1.78
2017-12-30T01:50:40.006Z,1.83
2017-12-30T01:53:08.343Z,1.82
2017-12-30T01:55:36.695Z,1.73
2017-12-30T01:58:05.808Z,1.81
2017-12-30T02:00:34.139Z,1.79
2017-12-30T02:03:02.535Z,1.88
2017-12-30T02:05:31.723Z,1.89
2017-12-30T02:08:00.109Z,1.87
2017-12-30T02:10:28.478Z,1.83
2017-12-30T02:12:56.805Z,1.89
2017-12-30T02:15:25.183Z,1.82
2017-12-30T02:17:53.511Z,1.83
2017-12-30T02:20:22.614Z,1.88
2017-12-30T02:22:51.780Z,1.93
2017-12-30T02:25:20.112Z,2.02
2017-12-30T02:27:48.465Z,2.02
2017-12-30T02:30:17.591Z,1.94
2017-12-30T02:32:45.902Z,2.01
2017-12-30T02:35:14.326Z,1.98
2017-12-30T02:37:43.468Z,1.99
2017-12-30T02:40:11.799Z,1.99
2017-12-30T02:42:40.884Z,2.02
2017-12-30T02:45:09.984Z,1.95
2017-12-30T02:47:39.075Z,2.00
2017-12-30T02:50:08.206Z,1.95
2017-12-30T02:52:36.579Z,1.97
2017-12-30T02:55:05.040Z,2.08
2017-12-30T02:57:34.156Z,2.05
2017-12-30T03:00:02.474Z,2.10
2017-12-30T03:02:30.827Z,2.21
2017-12-30T03:04:59.285Z,2.16
2017-12-30T03:07:27.594Z,2.26
2017-12-30T03:09:55.940Z,2.30
2017-12-30T03:14:59.723Z,2.41
2017-12-30T03:17:28.131Z,2.38
2017-12-30T03:19:56.442Z,2.36
2017-12-30T03:22:24.812Z,2.33
2017-12-30T03:24:53.147Z,2.22
2017-12-30T03:27:22.261Z,2.11
2017-12-30T03:29:50.595Z,2.18
2017-12-30T03:32:18.902Z,2.26
2017-12-30T03:34:48.089Z,2.25
2017-12-30T03:37:17.170Z,2.21
2017-12-30T03:39:45.563Z,2.03
2017-12-30T03:42:14.687Z,1.92
2017-12-30T03:44:43.009Z,1.86
2017-12-30T03:47:11.337Z,1.72
2017-12-30T03:49:39.674Z,1.59
2017-12-30T03:52:08.043Z,1.67
2017-12-30T03:54:36.376Z,1.65
2017-12-30T03:57:04.709Z,1.61
2017-12-30T03:59:33.062Z,1.55
2017-12-30T04:02:01.429Z,1.48
2017-12-30T04:04:29.741Z,1.36
2017-12-30T04:06:58.178Z,1.24
2017-12-30T04:09:26.539Z,1.09
2017-12-30T04:11:54.847Z,1.02
2017-12-30T04:14:23.178Z,1.00
2017-12-30T04:16:52.288Z,0.93
2017-12-30T04:19:20.630Z,0.87
2017-12-30T04:21:48.987Z,0.83
2017-12-30T04:24:17.299Z,0.84
2017-12-30T04:26:45.669Z,0.78
2017-12-30T04:29:14.767Z,0.67
2017-12-30T04:31:43.868Z,0.65
2017-12-30T04:34:12.992Z,0.70
2017-12-30T04:36:41.368Z,0.77
2017-12-30T04:39:09.701Z,0.81
2017-12-30T04:41:38.024Z,0.77
2017-12-30T04:44:06.339Z,0.79
2017-12-30T04:46:34.700Z,0.89
2017-12-30T04:49:03.041Z,0.90
2017-12-30T04:51:31.382Z,0.99
2017-12-30T04:53:59.711Z,1.12
2017-12-30T04:56:28.064Z,1.19
2017-12-30T04:58:57.159Z,1.22
2017-12-30T05:01:26.331Z,1.26
2017-12-30T05:03:54.682Z,1.38
2017-12-30T05:06:23.009Z,1.36
2017-12-30T05:08:52.179Z,1.40
2017-12-30T05:11:20.562Z,1.45
2017-12-30T05:13:48.880Z,1.49
2017-12-30T05:16:17.222Z,1.45
2017-12-30T05:18:46.343Z,1.42
2017-12-30T05:21:14.667Z,1.41
2017-12-30T05:23:43.039Z,1.38
2017-12-30T05:26:11.376Z,1.33
2017-12-30T05:28:39.707Z,1.38
2017-12-30T05:31:08.027Z,1.48
2017-12-30T05:33:36.388Z,1.46
2017-12-30T05:36:05.472Z,1.47
2017-12-30T05:38:33.823Z,1.44
2017-12-30T05:41:02.159Z,1.30
2017-12-30T05:43:30.511Z,1.33
2017-12-30T05:45:58.895Z,1.46
2017-12-30T05:48:28.028Z,1.55
2017-12-30T05:50:56.372Z,1.61
2017-12-30T05:53:25.516Z,1.78
2017-12-30T05:55:53.835Z,1.71
2017-12-30T05:58:22.167Z,1.80
2017-12-30T06:00:50.535Z,1.81
2017-12-30T06:03:18.857Z,1.85
2017-12-30T06:05:47.184Z,1.95
2017-12-30T06:08:15.548Z,1.98
2017-12-30T06:10:43.891Z,2.04
2017-12-30T06:13:12.411Z,2.14
2017-12-30T06:15:40.757Z,2.26
2017-12-30T06:18:09.932Z,2.27
2017-12-30T06:20:38.265Z,2.30
2017-12-30T06:23:06.597Z,2.31
2017-12-30T06:25:34.952Z,2.37
2017-12-30T06:28:03.269Z,2.39
2017-12-30T06:30:32.395Z,2.47
2017-12-30T06:33:00.752Z,2.49
2017-12-30T06:35:29.849Z,2.53
2017-12-30T06:37:58.945Z,2.46
2017-12-30T06:40:28.077Z,2.54
2017-12-30T06:42:56.440Z,2.62
2017-12-30T06:45:24.802Z,2.58
2017-12-30T06:47:53.163Z,2.63
2017-12-30T06:50:22.288Z,2.66
2017-12-30T06:52:50.618Z,2.64
2017-12-30T06:55:20.454Z,2.67
2017-12-30T06:57:49.569Z,2.72
2017-12-30T07:00:17.892Z,2.81
2017-12-30T07:02:46.286Z,2.81
2017-12-30T07:05:14.613Z,2.79
2017-12-30T07:07:42.971Z,2.88
2017-12-30T07:10:11.292Z,2.92
2017-12-30T07:12:39.613Z,2.93
2017-12-30T07:15:08.812Z,2.92
2017-12-30T07:17:37.917Z,2.99
2017-12-30T07:20:06.508Z,3.07
2017-12-30T07:22:34.850Z,3.13
2017-12-30T07:25:03.239Z,3.15
2017-12-30T07:27:32.352Z,3.09
2017-12-30T07:30:00.677Z,3.15
2017-12-30T07:32:29.028Z,3.21
2017-12-30T07:34:57.334Z,3.24
2017-12-30T07:37:25.675Z,3.33
2017-12-30T07:39:54.040Z,3.48
2017-12-30T07:42:22.361Z,3.36
2017-12-30T07:44:50.698Z,3.63
2017-12-30T07:47:19.052Z,3.61
2017-12-30T07:49:48.167Z,3.85
2017-12-30T07:52:16.504Z,3.78
2017-12-30T07:54:44.862Z,3.71
2017-12-30T07:57:13.187Z,3.86
2017-12-30T07:59:42.267Z,3.84
2017-12-30T08:02:10.636Z,3.80
2017-12-30T08:04:38.956Z,3.74
2017-12-30T08:07:07.268Z,3.73
2017-12-30T08:09:35.627Z,3.76
2017-12-30T08:12:03.972Z,3.77
2017-12-30T08:14:33.092Z,3.69
2017-12-30T08:17:01.444Z,3.60
2017-12-30T08:19:30.532Z,3.57
2017-12-30T08:21:59.636Z,3.48
2017-12-30T08:24:28.756Z,3.65
2017-12-30T08:26:57.089Z,3.56
2017-12-30T08:29:26.192Z,3.54
2017-12-30T08:31:54.549Z,3.61
2017-12-30T08:34:22.967Z,3.73
2017-12-30T08:36:51.318Z,3.74
2017-12-30T08:39:19.689Z,3.79
2017-12-30T08:41:48.009Z,3.80
2017-12-30T08:44:16.373Z,3.90
2017-12-30T08:46:45.452Z,3.96
2017-12-30T08:49:13.755Z,3.88
2017-12-30T08:51:42.120Z,4.09
2017-12-30T08:54:11.281Z,3.91
2017-12-30T08:56:39.647Z,3.93
2017-12-30T08:59:08.008Z,4.07
2017-12-30T09:01:36.323Z,3.94
2017-12-30T09:04:04.665Z,3.87
2017-12-30T09:06:32.988Z,3.88
2017-12-30T09:09:02.124Z,3.88
2017-12-30T09:11:30.500Z,3.98
2017-12-30T09:13:58.822Z,3.91
2017-12-30T09:16:27.167Z,3.93
2017-12-30T09:18:55.736Z,3.90
2017-12-30T09:21:24.113Z,4.00
2017-12-30T09:23:52.466Z,4.00
2017-12-30T09:26:21.568Z,4.16
2017-12-30T09:28:50.717Z,4.07
2017-12-30T09:31:19.079Z,4.11
2017-12-30T09:33:47.410Z,4.10
2017-12-30T09:36:16.553Z,4.04
2017-12-30T09:38:44.911Z,3.95
2017-12-30T09:41:13.325Z,3.99
2017-12-30T09:43:41.663Z,4.01
2017-12-30T09:46:10.129Z,4.06
2017-12-30T09:48:38.481Z,4.13
2017-12-30T09:51:06.791Z,4.11
2017-12-30T09:53:35.161Z,4.10
2017-12-30T09:56:04.301Z,4.08
2017-12-30T09:58:32.646Z,4.14
2017-12-30T10:01:00.974Z,4.25
2017-12-30T10:03:29.348Z,4.27
2017-12-30T10:05:57.670Z,4.23
2017-12-30T10:08:26.178Z,4.33
2017-12-30T10:10:54.549Z,4.38
2017-12-30T10:13:22.901Z,4.44
2017-12-30T10:15:52.034Z,4.55
2017-12-30T10:18:20.407Z,4.62
2017-12-30T10:20:48.752Z,4.83
2017-12-30T10:23:17.840Z,4.96
2017-12-30T10:25:46.932Z,4.77
2017-12-30T10:28:16.091Z,4.85
2017-12-30T10:30:44.412Z,4.90
2017-12-30T10:33:13.549Z,4.89
2017-12-30T10:35:41.900Z,5.22
2017-12-30T10:38:10.373Z,5.49
2017-12-30T10:40:39.497Z,5.76
2017-12-30T10:43:07.827Z,5.82
2017-12-30T10:45:36.163Z,5.36
2017-12-30T10:48:04.483Z,5.27
2017-12-30T10:50:34.359Z,5.02
2017-12-30T10:53:02.703Z,5.06
2017-12-30T10:55:31.042Z,4.97
2017-12-30T10:57:59.409Z,4.91
2017-12-30T11:00:33.277Z,4.72
2017-12-30T11:03:01.653Z,4.77
2017-12-30T11:05:29.967Z,4.73
2017-12-30T11:07:58.316Z,4.68
2017-12-30T11:10:26.667Z,4.57
2017-12-30T11:12:55.024Z,4.57
2017-12-30T11:15:24.141Z,4.58
2017-12-30T11:17:52.476Z,4.49
2017-12-30T11:20:20.844Z,4.36
2017-12-30T11:22:49.301Z,4.31
2017-12-30T11:25:17.681Z,3.96
2017-12-30T11:27:46.068Z,3.90
2017-12-30T11:30:14.435Z,3.90
2017-12-30T11:32:42.753Z,3.81
2017-12-30T11:35:11.090Z,3.85
2017-12-30T11:37:39.440Z,3.82
2017-12-30T11:40:07.813Z,3.95
2017-12-30T11:42:36.928Z,4.04
2017-12-30T11:45:05.260Z,3.95
2017-12-30T11:47:33.596Z,4.05
2017-12-30T11:50:01.968Z,3.99
2017-12-30T11:52:30.304Z,4.01
2017-12-30T11:54:58.619Z,3.87
2017-12-30T11:57:26.981Z,3.76
2017-12-30T11:59:55.369Z,3.70
2017-12-30T12:02:23.735Z,3.50
2017-12-30T12:04:52.823Z,3.52
2017-12-30T12:07:21.926Z,3.55
2017-12-30T12:09:51.024Z,3.58
2017-12-30T12:12:19.351Z,3.53
2017-12-30T12:14:47.705Z,3.48
2017-12-30T12:17:16.025Z,3.57
2017-12-30T12:19:44.393Z,3.50
2017-12-30T12:22:12.787Z,3.51
2017-12-30T12:24:41.130Z,3.51
2017-12-30T12:27:09.503Z,3.54
2017-12-30T12:29:37.866Z,3.69
2017-12-30T12:32:06.196Z,3.66
2017-12-30T12:34:35.309Z,3.71
2017-12-30T12:37:04.415Z,3.84
2017-12-30T12:39:32.782Z,3.90
2017-12-30T12:42:01.871Z,4.03
2017-12-30T12:44:30.951Z,4.11
2017-12-30T12:46:59.307Z,4.26
2017-12-30T12:49:27.678Z,4.33
2017-12-30T12:51:56.104Z,4.42
2017-12-30T12:54:24.459Z,4.39
2017-12-30T12:56:52.814Z,4.37
2017-12-30T12:59:21.173Z,4.28
2017-12-30T13:01:49.517Z,4.23
2017-12-30T13:04:18.628Z,4.13
2017-12-30T13:06:46.975Z,4.14
2017-12-30T13:09:15.297Z,4.09
2017-12-30T13:11:43.686Z,4.15
2017-12-30T13:14:12.028Z,4.14
2017-12-30T13:16:41.153Z,4.15
2017-12-30T13:19:09.510Z,4.18
2017-12-30T13:21:37.837Z,4.14
2017-12-30T13:24:06.212Z,4.16
2017-12-30T13:26:34.567Z,4.21
2017-12-30T13:29:02.920Z,4.23
2017-12-30T13:31:31.313Z,4.24
2017-12-30T13:33:59.663Z,4.24
2017-12-30T13:36:28.761Z,4.22
2017-12-30T13:38:57.887Z,4.21
2017-12-30T13:41:26.216Z,4.28
2017-12-30T13:43:54.536Z,4.36
2017-12-30T13:46:22.884Z,4.35
2017-12-30T13:48:52.015Z,4.36
2017-12-30T13:51:20.360Z,4.37
2017-12-30T13:53:49.463Z,4.34
2017-12-30T13:56:17.803Z,4.29
2017-12-30T13:58:46.701Z,4.29
2017-12-30T14:01:15.015Z,4.32
2017-12-30T14:03:43.373Z,4.35
2017-12-30T14:06:12.452Z,4.43
2017-12-30T14:08:40.780Z,4.41
2017-12-30T14:11:09.149Z,4.36
2017-12-30T14:13:37.479Z,4.38
2017-12-30T14:16:05.791Z,4.30
2017-12-30T14:18:34.132Z,4.39
2017-12-30T14:21:02.483Z,4.38
2017-12-30T14:23:30.826Z,4.34
2017-12-30T14:25:59.158Z,4.44
2017-12-30T14:28:27.516Z,4.37
2017-12-30T14:30:55.878Z,4.39
2017-12-30T14:33:24.195Z,4.39
2017-12-30T14:35:52.545Z,4.41
2017-12-30T14:38:20.872Z,4.42
2017-12-30T14:40:49.952Z,4.43
2017-12-30T14:43:19.085Z,4.48
2017-12-30T14:45:47.430Z,4.51
2017-12-30T14:48:16.528Z,4.60
2017-12-30T14:50:45.635Z,4.57
2017-12-30T14:53:14.918Z,4.56
2017-12-30T14:55:44.000Z,4.58
2017-12-30T14:58:12.323Z,4.57
2017-12-30T15:00:40.656Z,4.62
2017-12-30T15:03:08.992Z,4.60
2017-12-30T15:05:37.360Z,4.65
2017-12-30T15:08:05.714Z,4.67
2017-12-30T15:10:34.808Z,4.70
2017-12-30T15:13:03.920Z,4.71
2017-12-30T15:15:32.242Z,4.76
2017-12-30T15:18:00.595Z,4.80
2017-12-30T15:20:28.905Z,4.78
2017-12-30T15:22:57.263Z,4.75
2017-12-30T15:25:25.655Z,4.83
2017-12-30T15:27:53.975Z,4.94
2017-12-30T15:30:22.511Z,4.94
2017-12-30T15:32:50.919Z,5.02
2017-12-30T15:35:19.269Z,5.10
2017-12-30T15:37:47.614Z,5.13
2017-12-30T15:40:15.931Z,5.17
2017-12-30T15:42:44.290Z,5.27
2017-12-30T15:45:12.619Z,5.30
2017-12-30T15:47:41.751Z,5.30
2017-12-30T15:50:10.092Z,5.42
2017-12-30T15:52:38.449Z,5.46
2017-12-30T15:55:06.751Z,5.53
2017-12-30T15:57:35.956Z,5.63
2017-12-30T16:00:04.288Z,5.69
2017-12-30T16:02:32.603Z,6.20
2017-12-30T16:05:00.980Z,5.99
2017-12-30T16:07:29.308Z,5.98
2017-12-30T16:09:57.640Z,5.99
2017-12-30T16:12:25.975Z,6.03
2017-12-30T16:14:54.315Z,6.05
2017-12-30T16:17:22.695Z,6.03
2017-12-30T16:19:51.017Z,6.09
2017-12-30T16:22:19.383Z,6.19
2017-12-30T16:24:47.803Z,6.22
2017-12-30T16:27:16.174Z,6.27
2017-12-30T16:29:44.499Z,6.28
2017-12-30T16:32:12.869Z,6.38
2017-12-30T16:34:41.190Z,6.33
2017-12-30T16:37:09.572Z,6.38
2017-12-30T16:39:38.771Z,6.42
2017-12-30T16:42:07.897Z,6.35
2017-12-30T16:44:36.278Z,6.26
2017-12-30T16:47:04.614Z,6.29
2017-12-30T16:49:32.947Z,6.34
2017-12-30T16:52:01.302Z,6.29
2017-12-30T16:54:29.699Z,6.38
2017-12-30T16:56:58.023Z,6.51
2017-12-30T16:59:26.353Z,6.54
2017-12-30T17:01:54.732Z,6.66
2017-12-30T17:04:23.048Z,6.68
2017-12-30T17:06:51.458Z,6.64
2017-12-30T17:09:20.596Z,6.67
2017-12-30T17:11:48.923Z,6.69
2017-12-30T17:14:18.020Z,6.68
2017-12-30T17:16:47.175Z,6.67
2017-12-30T17:19:15.500Z,6.67
2017-12-30T17:21:44.623Z,6.68
2017-12-30T17:24:12.939Z,6.78
2017-12-30T17:26:41.329Z,6.79
2017-12-30T17:29:09.672Z,6.78
2017-12-30T17:31:37.993Z,6.82
2017-12-30T17:34:07.083Z,6.92
2017-12-30T17:36:36.204Z,6.98
2017-12-30T17:39:04.543Z,7.09
2017-12-30T17:41:32.870Z,7.43
2017-12-30T17:44:01.230Z,7.61
2017-12-30T17:46:30.327Z,7.87
2017-12-30T17:48:58.677Z,8.09
2017-12-30T17:51:27.027Z,8.24
2017-12-30T17:53:55.379Z,8.37
2017-12-30T17:56:23.820Z,8.33
2017-12-30T17:58:52.140Z,8.41
2017-12-30T18:01:20.458Z,8.51
2017-12-30T18:03:48.844Z,8.42
2017-12-30T18:06:17.158Z,8.53
2017-12-30T18:08:45.537Z,8.43
2017-12-30T18:11:13.887Z,8.35
2017-12-30T18:13:43.024Z,8.47
2017-12-30T18:16:11.373Z,8.68
2017-12-30T18:18:39.727Z,8.84
2017-12-30T18:21:08.086Z,8.86
2017-12-30T18:23:36.586Z,8.93
2017-12-30T18:26:04.916Z,8.96
2017-12-30T18:28:33.268Z,9.04
2017-12-30T18:31:01.608Z,8.91
2017-12-30T18:33:30.723Z,8.93
2017-12-30T18:35:59.094Z,8.89
2017-12-30T18:38:27.423Z,8.88
2017-12-30T18:40:55.787Z,8.81
2017-12-30T18:43:24.112Z,8.98
2017-12-30T18:45:52.440Z,8.92
2017-12-30T18:48:20.807Z,9.08
2017-12-30T18:50:49.131Z,9.23
2017-12-30T18:53:17.456Z,9.38
2017-12-30T18:55:45.806Z,9.43
2017-12-30T18:58:14.195Z,9.36
2017-12-30T19:00:42.570Z,9.27
2017-12-30T19:03:11.006Z,9.30
2017-12-30T19:05:39.378Z,9.34
2017-12-30T19:08:07.759Z,9.41
2017-12-30T19:10:36.113Z,9.41
2017-12-30T19:13:04.479Z,9.50
2017-12-30T19:15:33.594Z,9.51
2017-12-30T19:18:01.935Z,9.52
2017-12-30T19:20:31.854Z,9.63
2017-12-30T19:23:00.936Z,9.75
2017-12-30T19:25:29.293Z,9.73
2017-12-30T19:27:57.659Z,9.76
2017-12-30T19:30:25.988Z,9.84
2017-12-30T19:32:55.078Z,9.71
2017-12-30T19:35:24.195Z,9.65
2017-12-30T19:37:52.549Z,9.60
2017-12-30T19:40:21.652Z,9.53
2017-12-30T19:42:53.639Z,9.47
2017-12-30T19:45:21.962Z,9.39
2017-12-30T19:47:50.460Z,9.40
2017-12-30T19:50:21.374Z,9.47
2017-12-30T19:52:49.992Z,9.42
2017-12-30T19:55:19.503Z,9.35
2017-12-30T19:57:47.864Z,9.37
2017-12-30T20:00:16.206Z,9.39
2017-12-30T20:02:44.614Z,9.31
2017-12-30T20:05:13.694Z,9.29
2017-12-30T20:07:42.043Z,9.30
2017-12-30T20:10:10.376Z,9.30
2017-12-30T20:12:39.499Z,9.24
2017-12-30T20:15:07.831Z,9.18
2017-12-30T20:17:36.175Z,9.08
2017-12-30T20:20:04.536Z,9.06
2017-12-30T20:22:32.861Z,9.06
2017-12-30T20:25:01.188Z,8.94
2017-12-30T20:27:29.560Z,8.76
2017-12-30T20:29:57.885Z,8.49
2017-12-30T20:32:26.210Z,8.47
2017-12-30T20:34:54.578Z,8.50
2017-12-30T20:37:22.908Z,8.67
2017-12-30T20:39:51.241Z,8.78
2017-12-30T20:42:19.585Z,8.93
2017-12-30T20:44:47.900Z,8.99
2017-12-30T20:47:16.219Z,9.02
2017-12-30T20:49:44.587Z,8.98
2017-12-30T20:52:12.904Z,8.88
2017-12-30T20:54:41.306Z,8.91
2017-12-30T20:57:09.675Z,9.09
2017-12-30T20:59:38.801Z,9.22
2017-12-30T21:02:07.165Z,9.43
2017-12-30T21:04:35.512Z,9.47
2017-12-30T21:07:03.827Z,9.50
2017-12-30T21:09:32.179Z,9.60
2017-12-30T21:12:00.559Z,9.57
2017-12-30T21:14:29.019Z,9.63
2017-12-30T21:16:57.371Z,9.65
2017-12-30T21:19:25.686Z,9.59
2017-12-30T21:21:54.803Z,9.59
2017-12-30T21:24:39.846Z,9.66
2017-12-30T21:27:08.987Z,9.67
2017-12-30T21:29:37.310Z,9.87
2017-12-30T21:32:06.537Z,9.97
2017-12-30T21:34:35.839Z,10.06
2017-12-30T21:37:04.255Z,10.05
2017-12-30T21:39:32.574Z,10.20
2017-12-30T21:42:01.670Z,10.30
2017-12-30T21:44:30.819Z,10.26
2017-12-30T21:46:59.213Z,10.34
2017-12-30T21:49:27.613Z,10.30
2017-12-30T21:51:55.987Z,10.22
2017-12-30T21:54:24.313Z,10.15
2017-12-30T21:56:52.666Z,10.04
2017-12-30T21:59:21.815Z,10.11
2017-12-30T22:01:50.155Z,10.09
2017-12-30T22:04:18.485Z,9.96
2017-12-30T22:06:48.473Z,9.83
2017-12-30T22:09:16.835Z,9.86
2017-12-30T22:11:45.172Z,9.97
2017-12-30T22:14:14.320Z,9.91
2017-12-30T22:16:42.721Z,9.98
2017-12-30T22:19:11.104Z,10.04
2017-12-30T22:21:39.468Z,10.07
2017-12-30T22:24:07.805Z,10.20
2017-12-30T22:26:36.936Z,10.25
2017-12-30T22:29:05.285Z,10.25
2017-12-30T22:31:33.635Z,10.27
2017-12-30T22:34:02.019Z,10.40
2017-12-30T22:36:31.100Z,10.47
2017-12-30T22:39:00.251Z,10.43
2017-12-30T22:41:28.571Z,10.41
2017-12-30T22:43:57.676Z,10.45
2017-12-30T22:46:26.871Z,10.51
2017-12-30T22:48:55.247Z,10.51
2017-12-30T22:51:24.396Z,10.54
2017-12-30T22:53:52.755Z,10.46
2017-12-30T22:56:21.095Z,10.28
2017-12-30T22:58:49.515Z,10.08
2017-12-30T23:01:17.870Z,9.88
2017-12-30T23:03:46.285Z,9.79
2017-12-30T23:06:14.643Z,9.65
2017-12-30T23:08:43.000Z,9.60
2017-12-30T23:13:46.535Z,9.46
2017-12-30T23:16:15.191Z,9.44
2017-12-30T23:18:44.478Z,9.44
2017-12-30T23:21:13.733Z,9.37
2017-12-30T23:23:42.061Z,9.33
2017-12-30T23:26:10.400Z,9.35
2017-12-30T23:28:38.717Z,9.32
2017-12-30T23:31:07.098Z,9.30
2017-12-30T23:33:35.473Z,9.30
2017-12-30T23:36:04.678Z,9.24
2017-12-30T23:38:33.055Z,9.18
2017-12-30T23:41:02.151Z,9.22
2017-12-30T23:43:30.478Z,9.26
2017-12-30T23:45:58.860Z,9.23
2017-12-30T23:48:27.220Z,9.23
2017-12-30T23:50:55.590Z,9.16
2017-12-30T23:53:23.945Z,9.20
2017-12-30T23:55:53.064Z,9.22
2017-12-30T23:58:21.379Z,9.28
